WXM80 ListenWXM80 Stop

You find our weather info also at:

UK Metoffice

WeatherCloud

Weather Underground

Northeastern Weather Network

AWEKAS

Citizen Weather Observer Program (CWOP)

HAMweather, WeatherForYou, PWS Weather


Weather Underground History page Text

Daily Summary for April 13, 2017 Units:  English    Metric   Both
« Previous Day
Next Day »
Daily Weekly Monthly Yearly Custom
  High: Low: Average:
Temperature: 64.0 °F 43.7 °F 53.7 °F
Dew Point: 49.5 °F 35.5 °F 40.1 °F
Humidity: 86 % 37 % 62 %
Wind Speed: 7.6 mph 0.0 mph 2.5 mph
Wind Gust: 11.5 mph - -
Wind:- - SW
Pressure: 30.34 in 30.21 in -
Precipitation: 0.00 in    
Historical Graphs
 
 
Tabular Data for April 13, 2017
Time Temperature Dew Point Pressure Wind Wind Speed Wind Gust Humidity Rainfall Rate (Hourly)
00:01 54.2 °F 49.5 °F 30.21 in NNW 4.8 mph 6.9 mph 84 % 0.00 in
00:06 54.2 °F 49.1 °F 30.22 in North 3.1 mph 8.1 mph 83 % 0.00 in
00:11 54.2 °F 49.1 °F 30.22 in NE 4.5 mph 8.1 mph 83 % 0.00 in
00:16 54.1 °F 48.7 °F 30.22 in North 3.6 mph 8.1 mph 82 % 0.00 in
00:21 54.0 °F 48.0 °F 30.22 in NNE 6.8 mph 11.5 mph 80 % 0.00 in
00:26 54.0 °F 47.6 °F 30.23 in North 5.6 mph 11.5 mph 79 % 0.00 in
00:31 54.1 °F 47.4 °F 30.23 in North 6.7 mph 9.2 mph 78 % 0.00 in
00:36 54.1 °F 47.4 °F 30.24 in North 2.4 mph 3.5 mph 78 % 0.00 in
00:41 53.9 °F 46.9 °F 30.24 in NNE 5.3 mph 9.2 mph 77 % 0.00 in
00:46 53.7 °F 46.3 °F 30.24 in NNE 1.8 mph 5.8 mph 76 % 0.00 in
00:51 53.5 °F 46.1 °F 30.25 in NW 0.3 mph 3.5 mph 76 % 0.00 in
00:56 53.3 °F 45.9 °F 30.25 in Calm   1.0 mph 76 % 0.00 in
01:01 53.1 °F 45.7 °F 30.25 in North 2.3 mph 5.8 mph 76 % 0.00 in
01:06 52.8 °F 45.4 °F 30.25 in NE 1.0 mph 2.3 mph 76 % 0.00 in
01:11 52.5 °F 44.8 °F 30.25 in NE 0.8 mph 3.5 mph 75 % 0.00 in
01:16 52.1 °F 44.4 °F 30.25 in SSE 1.5 mph 4.0 mph 75 % 0.00 in
01:21 51.8 °F 44.5 °F 30.25 in NW 1.5 mph 8.0 mph 76 % 0.00 in
01:27 51.4 °F 43.7 °F 30.25 in NNW 4.1 mph 6.0 mph 75 % 0.00 in
01:32 51.1 °F 43.8 °F 30.25 in North 5.4 mph 10.4 mph 76 % 0.00 in
01:37 50.9 °F 43.6 °F 30.25 in North 3.2 mph 5.0 mph 76 % 0.00 in
01:42 50.7 °F 43.4 °F 30.25 in North 3.1 mph 11.5 mph 76 % 0.00 in
01:47 50.6 °F 43.3 °F 30.25 in NNE 5.3 mph 8.1 mph 76 % 0.00 in
01:52 50.5 °F 43.2 °F 30.25 in NNE 3.4 mph 5.8 mph 76 % 0.00 in
01:57 50.4 °F 43.1 °F 30.25 in NE 7.6 mph 11.5 mph 76 % 0.00 in
02:02 50.3 °F 43.0 °F 30.25 in NNW 6.0 mph 8.1 mph 76 % 0.00 in
02:07 50.2 °F 42.9 °F 30.25 in NNE 6.5 mph 8.1 mph 76 % 0.00 in
02:12 50.1 °F 42.8 °F 30.25 in NNE 5.2 mph 6.9 mph 76 % 0.00 in
02:17 50.0 °F 42.7 °F 30.25 in NNE 3.5 mph 8.1 mph 76 % 0.00 in
02:22 49.9 °F 42.6 °F 30.25 in North 3.5 mph 5.8 mph 76 % 0.00 in
02:27 49.7 °F 42.4 °F 30.25 in North 2.3 mph 6.9 mph 76 % 0.00 in
02:32 49.6 °F 42.7 °F 30.25 in NNE 4.7 mph 5.8 mph 77 % 0.00 in
02:37 49.4 °F 42.5 °F 30.25 in North 3.2 mph 8.1 mph 77 % 0.00 in
02:39 49.3 °F 42.4 °F 30.25 in North 2.8 mph 6.9 mph 77 % 0.00 in
02:44 49.2 °F 42.3 °F 30.25 in NNE 4.9 mph 6.9 mph 77 % 0.00 in
02:49 49.1 °F 41.9 °F 30.25 in North 3.6 mph 6.9 mph 76 % 0.00 in
02:54 49.0 °F 42.1 °F 30.25 in NNE 4.2 mph 5.8 mph 77 % 0.00 in
02:56 48.9 °F 42.0 °F 30.25 in NNE 3.8 mph 5.8 mph 77 % 0.00 in
03:01 48.9 °F 42.0 °F 30.26 in NNE 4.7 mph 6.0 mph 77 % 0.00 in
03:06 48.7 °F 42.1 °F 30.26 in NNE 5.4 mph 8.1 mph 78 % 0.00 in
03:11 48.6 °F 42.0 °F 30.26 in NNE 3.8 mph 6.9 mph 78 % 0.00 in
03:16 48.5 °F 42.0 °F 30.26 in North 3.6 mph 5.8 mph 78 % 0.00 in
03:21 48.4 °F 41.9 °F 30.26 in North 3.3 mph 8.1 mph 78 % 0.00 in
03:26 48.3 °F 41.8 °F 30.26 in NNE 1.9 mph 3.5 mph 78 % 0.00 in
03:31 48.1 °F 41.9 °F 30.26 in NNW 2.0 mph 4.6 mph 79 % 0.00 in
03:36 47.9 °F 41.7 °F 30.26 in North 2.6 mph 6.0 mph 79 % 0.00 in
03:41 47.8 °F 41.6 °F 30.26 in NNE 2.0 mph 4.6 mph 79 % 0.00 in
03:46 47.7 °F 41.5 °F 30.26 in North 1.2 mph 2.3 mph 79 % 0.00 in
03:51 47.6 °F 41.4 °F 30.26 in Calm   2.3 mph 79 % 0.00 in
03:56 47.5 °F 41.6 °F 30.26 in North 0.3 mph   80 % 0.00 in
04:01 47.4 °F 41.9 °F 30.26 in North 0.1 mph 2.3 mph 81 % 0.00 in
04:06 47.2 °F 41.7 °F 30.26 in North 0.2 mph 1.2 mph 81 % 0.00 in
04:11 47.0 °F 41.5 °F 30.26 in Calm     81 % 0.00 in
04:16 46.9 °F 41.7 °F 30.26 in North 0.1 mph 1.2 mph 82 % 0.00 in
04:21 46.7 °F 41.5 °F 30.26 in Calm     82 % 0.00 in
04:26 46.4 °F 41.5 °F 30.26 in Calm     83 % 0.00 in
04:31 46.2 °F 41.3 °F 30.26 in Calm   1.2 mph 83 % 0.00 in
04:36 46.0 °F 41.1 °F 30.27 in Calm     83 % 0.00 in
04:41 45.8 °F 40.9 °F 30.27 in Calm     83 % 0.00 in
04:46 45.6 °F 41.0 °F 30.27 in North 0.3 mph 2.3 mph 84 % 0.00 in
04:51 45.5 °F 40.6 °F 30.27 in Calm     83 % 0.00 in
04:56 45.3 °F 40.7 °F 30.27 in NNW 1.1 mph 3.5 mph 84 % 0.00 in
04:57 45.2 °F 40.7 °F 30.27 in NNW 2.1 mph 3.5 mph 84 % 0.00 in
05:02 45.1 °F 40.6 °F 30.27 in Calm   1.2 mph 84 % 0.00 in
05:07 44.9 °F 40.4 °F 30.28 in Calm     84 % 0.00 in
05:12 44.8 °F 40.6 °F 30.28 in Calm     85 % 0.00 in
05:17 44.6 °F 40.4 °F 30.28 in NNW 0.2 mph 1.0 mph 85 % 0.00 in
05:22 44.5 °F 40.3 °F 30.28 in Calm   1.2 mph 85 % 0.00 in
05:27 44.3 °F 40.4 °F 30.28 in NNW 0.4 mph 1.2 mph 86 % 0.00 in
05:32 44.2 °F 40.3 °F 30.28 in NW 0.1 mph 1.2 mph 86 % 0.00 in
05:37 44.0 °F 39.8 °F 30.28 in WSW 0.2 mph 2.0 mph 85 % 0.00 in
05:42 43.9 °F 39.7 °F 30.28 in WNW 0.2 mph 1.2 mph 85 % 0.00 in
05:47 43.8 °F 39.3 °F 30.28 in WNW 1.3 mph 3.5 mph 84 % 0.00 in
05:52 43.7 °F 38.9 °F 30.28 in WNW 1.0 mph 3.5 mph 83 % 0.00 in
05:57 43.7 °F 38.3 °F 30.28 in WNW 0.8 mph 2.3 mph 81 % 0.00 in
06:03 43.8 °F 38.3 °F 30.28 in WNW 2.1 mph 3.5 mph 81 % 0.00 in
06:08 44.0 °F 38.2 °F 30.28 in NW 2.4 mph 5.8 mph 80 % 0.00 in
06:13 44.2 °F 38.1 °F 30.28 in West 2.1 mph 4.0 mph 79 % 0.00 in
06:18 44.3 °F 37.9 °F 30.28 in WNW 2.9 mph 7.0 mph 78 % 0.00 in
06:23 44.6 °F 37.8 °F 30.29 in WNW 1.7 mph 3.5 mph 77 % 0.00 in
06:28 44.8 °F 37.7 °F 30.29 in West 3.3 mph 3.5 mph 76 % 0.00 in
06:33 45.0 °F 37.9 °F 30.29 in West 4.1 mph 6.9 mph 76 % 0.00 in
06:38 45.2 °F 37.7 °F 30.30 in WNW 1.8 mph 4.6 mph 75 % 0.00 in
06:43 45.4 °F 37.9 °F 30.29 in WNW 1.4 mph 3.5 mph 75 % 0.00 in
06:48 45.5 °F 38.0 °F 30.30 in West 1.4 mph 3.5 mph 75 % 0.00 in
06:53 45.8 °F 38.0 °F 30.30 in WSW 2.8 mph 3.5 mph 74 % 0.00 in
06:58 46.0 °F 38.2 °F 30.30 in WNW 2.7 mph 3.5 mph 74 % 0.00 in
07:03 46.3 °F 38.1 °F 30.30 in WSW 3.9 mph 6.0 mph 73 % 0.00 in
07:08 46.8 °F 38.6 °F 30.31 in West 3.4 mph 6.9 mph 73 % 0.00 in
07:13 47.0 °F 38.1 °F 30.30 in West 2.3 mph 6.9 mph 71 % 0.00 in
07:18 47.4 °F 38.5 °F 30.31 in WNW 2.4 mph 6.9 mph 71 % 0.00 in
07:23 47.7 °F 38.4 °F 30.31 in WNW 6.3 mph 9.2 mph 70 % 0.00 in
07:28 48.0 °F 38.7 °F 30.31 in WNW 3.5 mph 9.2 mph 70 % 0.00 in
07:33 48.2 °F 38.9 °F 30.31 in WNW 3.8 mph 8.1 mph 70 % 0.00 in
07:38 48.5 °F 39.5 °F 30.31 in WNW 3.7 mph 9.2 mph 71 % 0.00 in
07:43 48.7 °F 39.4 °F 30.31 in WNW 1.6 mph 3.5 mph 70 % 0.00 in
07:48 48.9 °F 39.5 °F 30.32 in WNW 1.5 mph 4.0 mph 70 % 0.00 in
07:53 49.1 °F 39.7 °F 30.32 in NW 2.1 mph 3.5 mph 70 % 0.00 in
07:58 49.4 °F 40.0 °F 30.32 in NW 3.7 mph 5.8 mph 70 % 0.00 in
08:04 49.4 °F 40.0 °F 30.32 in WNW 3.7 mph 5.8 mph 70 % 0.00 in
08:09 49.5 °F 40.1 °F 30.32 in NW 3.6 mph 6.9 mph 70 % 0.00 in
08:14 49.4 °F 40.0 °F 30.32 in WNW 2.4 mph 6.9 mph 70 % 0.00 in
08:19 49.4 °F 40.4 °F 30.32 in NW 4.9 mph 7.0 mph 71 % 0.00 in
08:24 49.3 °F 39.9 °F 30.32 in NW 6.0 mph 8.1 mph 70 % 0.00 in
08:29 49.2 °F 39.8 °F 30.31 in NW 2.5 mph 5.8 mph 70 % 0.00 in
08:34 49.2 °F 39.8 °F 30.32 in NW 2.6 mph 4.0 mph 70 % 0.00 in
08:39 49.3 °F 39.9 °F 30.32 in NW 2.8 mph 9.2 mph 70 % 0.00 in
08:44 49.4 °F 40.7 °F 30.32 in NW 3.1 mph 6.9 mph 72 % 0.00 in
08:49 49.7 °F 41.0 °F 30.32 in West 2.5 mph 5.0 mph 72 % 0.00 in
08:54 50.0 °F 40.6 °F 30.32 in WNW 3.8 mph 5.8 mph 70 % 0.00 in
08:59 50.1 °F 40.3 °F 30.32 in NW 3.7 mph 8.1 mph 69 % 0.00 in
09:04 50.3 °F 40.1 °F 30.32 in NNW 4.1 mph 9.0 mph 68 % 0.00 in
09:09 50.5 °F 39.9 °F 30.32 in North 3.4 mph 8.1 mph 67 % 0.00 in
09:14 50.9 °F 41.1 °F 30.31 in NW 3.4 mph 8.1 mph 69 % 0.00 in
09:19 51.2 °F 41.0 °F 30.32 in NW 2.4 mph 5.0 mph 68 % 0.00 in
09:24 51.4 °F 40.4 °F 30.32 in NNW 3.0 mph 4.6 mph 66 % 0.00 in
09:29 51.5 °F 40.9 °F 30.32 in North 2.5 mph 3.5 mph 67 % 0.00 in
09:34 51.6 °F 40.6 °F 30.32 in NW 4.5 mph 5.8 mph 66 % 0.00 in
09:36 51.7 °F 41.5 °F 30.32 in NW 2.2 mph 4.6 mph 68 % 0.00 in
09:41 51.9 °F 40.9 °F 30.32 in NW 2.3 mph 6.9 mph 66 % 0.00 in
09:46 51.9 °F 40.9 °F 30.32 in NNW 2.9 mph 8.1 mph 66 % 0.00 in
09:51 52.1 °F 41.1 °F 30.32 in NNW 4.2 mph 5.8 mph 66 % 0.00 in
09:56 52.2 °F 41.6 °F 30.32 in North 3.8 mph 6.9 mph 67 % 0.00 in
10:01 52.2 °F 41.2 °F 30.32 in NNW 1.1 mph 3.5 mph 66 % 0.00 in
10:06 52.2 °F 40.8 °F 30.33 in NW 2.5 mph 4.6 mph 65 % 0.00 in
10:12 52.1 °F 40.7 °F 30.32 in WNW 4.1 mph 6.9 mph 65 % 0.00 in
10:17 51.9 °F 40.5 °F 30.32 in NW 2.5 mph 5.8 mph 65 % 0.00 in
10:22 52.0 °F 41.0 °F 30.32 in NW 1.0 mph 5.8 mph 66 % 0.00 in
10:27 52.1 °F 40.7 °F 30.32 in WNW 2.0 mph 3.5 mph 65 % 0.00 in
10:32 52.2 °F 39.6 °F 30.32 in NW 2.6 mph 4.6 mph 62 % 0.00 in
10:37 52.3 °F 39.2 °F 30.33 in NW 3.2 mph 4.6 mph 61 % 0.00 in
10:42 52.3 °F 38.8 °F 30.32 in WNW 3.2 mph 6.9 mph 60 % 0.00 in
10:47 52.3 °F 39.2 °F 30.32 in North 3.4 mph 5.8 mph 61 % 0.00 in
10:52 52.6 °F 40.4 °F 30.32 in NW 2.2 mph 5.0 mph 63 % 0.00 in
10:57 52.9 °F 39.8 °F 30.32 in WNW 2.8 mph 4.6 mph 61 % 0.00 in
11:02 53.2 °F 39.7 °F 30.32 in North 1.3 mph 3.5 mph 60 % 0.00 in
11:07 53.2 °F 38.8 °F 30.32 in NNW 2.1 mph 5.8 mph 58 % 0.00 in
11:12 53.3 °F 39.3 °F 30.32 in NW 2.7 mph 3.5 mph 59 % 0.00 in
11:17 53.7 °F 41.0 °F 30.32 in NW 1.4 mph 4.6 mph 62 % 0.00 in
11:22 54.3 °F 39.4 °F 30.32 in NW 3.8 mph 7.0 mph 57 % 0.00 in
11:27 54.3 °F 39.4 °F 30.32 in NNW 2.6 mph 3.5 mph 57 % 0.00 in
11:32 54.4 °F 39.5 °F 30.32 in NNW 2.7 mph 6.9 mph 57 % 0.00 in
11:37 54.7 °F 40.2 °F 30.32 in NNW 3.3 mph 5.8 mph 58 % 0.00 in
11:42 55.1 °F 40.6 °F 30.32 in WNW 2.9 mph 6.9 mph 58 % 0.00 in
11:47 55.9 °F 40.9 °F 30.32 in NNW 4.7 mph 8.1 mph 57 % 0.00 in
11:52 56.3 °F 40.3 °F 30.31 in WNW 3.3 mph 6.9 mph 55 % 0.00 in
11:57 56.8 °F 41.3 °F 30.31 in WNW 1.5 mph 7.0 mph 56 % 0.00 in
12:02 57.1 °F 41.1 °F 30.30 in NW 2.0 mph 3.5 mph 55 % 0.00 in
12:10 57.4 °F 38.9 °F 30.30 in WNW 4.2 mph 6.0 mph 50 % 0.00 in
12:15 57.2 °F 37.7 °F 30.30 in WNW 4.4 mph 7.0 mph 48 % 0.00 in
12:20 57.5 °F 41.0 °F 30.29 in NW 2.2 mph 3.5 mph 54 % 0.00 in
12:25 57.8 °F 39.3 °F 30.29 in NNE 2.9 mph 3.5 mph 50 % 0.00 in
12:30 58.4 °F 40.3 °F 30.29 in North 2.7 mph 4.6 mph 51 % 0.00 in
12:35 58.9 °F 40.8 °F 30.30 in North 3.3 mph 5.0 mph 51 % 0.00 in
12:40 59.1 °F 39.4 °F 30.30 in NNW 2.3 mph 3.5 mph 48 % 0.00 in
12:45 59.2 °F 40.0 °F 30.30 in NNE 3.1 mph 6.9 mph 49 % 0.00 in
12:50 59.7 °F 39.4 °F 30.30 in North 3.8 mph 6.9 mph 47 % 0.00 in
12:55 59.8 °F 39.0 °F 30.30 in NNW 4.1 mph 6.9 mph 46 % 0.00 in
13:00 59.9 °F 39.6 °F 30.29 in NNW 5.7 mph 8.1 mph 47 % 0.00 in
13:05 60.2 °F 40.4 °F 30.29 in NNW 3.7 mph 6.0 mph 48 % 0.00 in
13:10 60.2 °F 38.8 °F 30.29 in NNW 3.9 mph 6.9 mph 45 % 0.00 in
13:15 60.4 °F 40.1 °F 30.29 in WNW 2.6 mph 4.0 mph 47 % 0.00 in
13:20 60.8 °F 40.4 °F 30.29 in WNW 2.7 mph 4.0 mph 47 % 0.00 in
13:25 61.0 °F 38.3 °F 30.29 in North 3.4 mph 6.9 mph 43 % 0.00 in
13:30 61.3 °F 39.8 °F 30.29 in NW 2.3 mph 5.8 mph 45 % 0.00 in
13:35 61.6 °F 38.9 °F 30.29 in NW 1.1 mph 3.5 mph 43 % 0.00 in
13:41 62.1 °F 39.9 °F 30.29 in NW 4.1 mph 5.8 mph 44 % 0.00 in
13:46 62.5 °F 40.3 °F 30.29 in NNW 3.6 mph 6.9 mph 44 % 0.00 in
13:51 62.8 °F 39.4 °F 30.29 in NNW 2.9 mph 5.8 mph 42 % 0.00 in
13:56 63.0 °F 40.1 °F 30.29 in North 4.2 mph 5.8 mph 43 % 0.00 in
14:01 63.1 °F 38.4 °F 30.29 in WNW 3.7 mph 7.0 mph 40 % 0.00 in
14:06 63.1 °F 39.0 °F 30.28 in NW 4.7 mph 8.1 mph 41 % 0.00 in
14:11 63.2 °F 39.7 °F 30.28 in NW 2.7 mph 5.8 mph 42 % 0.00 in
14:16 63.2 °F 37.8 °F 30.28 in WNW 4.8 mph 6.9 mph 39 % 0.00 in
14:21 63.0 °F 38.9 °F 30.28 in NW 2.6 mph 3.5 mph 41 % 0.00 in
14:27 63.0 °F 37.0 °F 30.28 in North 4.0 mph 5.8 mph 38 % 0.00 in
14:32 63.2 °F 40.3 °F 30.28 in WNW 2.8 mph 4.6 mph 43 % 0.00 in
14:37 63.3 °F 37.9 °F 30.28 in West 3.8 mph 6.9 mph 39 % 0.00 in
14:42 63.3 °F 37.2 °F 30.28 in West 6.7 mph 8.1 mph 38 % 0.00 in
14:47 63.1 °F 36.4 °F 30.28 in North 3.3 mph 5.8 mph 37 % 0.00 in
14:52 63.1 °F 39.6 °F 30.28 in North 3.1 mph 5.0 mph 42 % 0.00 in
14:57 63.2 °F 38.5 °F 30.28 in NW 3.4 mph 5.0 mph 40 % 0.00 in
15:02 63.1 °F 38.4 °F 30.28 in NW 3.2 mph 6.0 mph 40 % 0.00 in
15:07 63.2 °F 38.5 °F 30.28 in NW 2.4 mph 3.5 mph 40 % 0.00 in
15:12 63.3 °F 37.9 °F 30.28 in NW 3.4 mph 4.0 mph 39 % 0.00 in
15:17 63.6 °F 39.5 °F 30.28 in NW 1.8 mph 5.0 mph 41 % 0.00 in
15:22 63.9 °F 39.7 °F 30.28 in NNW 1.0 mph 6.0 mph 41 % 0.00 in
15:27 64.0 °F 38.5 °F 30.27 in NNW 3.0 mph 6.0 mph 39 % 0.00 in
15:32 63.9 °F 37.7 °F 30.27 in NW 3.0 mph 7.0 mph 38 % 0.00 in
15:37 63.8 °F 39.0 °F 30.26 in NW 2.0 mph 5.0 mph 40 % 0.00 in
15:42 63.9 °F 39.7 °F 30.26 in NNW 2.0 mph 6.0 mph 41 % 0.00 in
15:47 63.8 °F 37.7 °F 30.26 in NW 2.0 mph 6.0 mph 38 % 0.00 in
15:52 63.8 °F 39.6 °F 30.26 in WNW 1.0 mph 5.0 mph 41 % 0.00 in
15:57 63.8 °F 38.4 °F 30.26 in NW 3.3 mph 6.0 mph 39 % 0.00 in
16:02 63.8 °F 38.4 °F 30.26 in NW 2.0 mph 7.0 mph 39 % 0.00 in
16:07 63.8 °F 37.7 °F 30.26 in NW 3.1 mph 4.6 mph 38 % 0.00 in
16:12 63.7 °F 36.9 °F 30.25 in NNW 2.0 mph 7.0 mph 37 % 0.00 in
16:17 63.5 °F 38.1 °F 30.25 in NNW 2.0 mph 5.0 mph 39 % 0.00 in
16:22 63.3 °F 38.6 °F 30.25 in NNW 6.0 mph 9.0 mph 40 % 0.00 in
16:27 63.3 °F 39.8 °F 30.25 in NW 3.0 mph 7.0 mph 42 % 0.00 in
16:32 63.1 °F 39.6 °F 30.25 in WNW 2.0 mph 7.0 mph 42 % 0.00 in
16:37 63.0 °F 37.6 °F 30.25 in NW 5.0 mph 6.0 mph 39 % 0.00 in
16:42 63.1 °F 37.7 °F 30.25 in NW 3.0 mph 8.0 mph 39 % 0.00 in
16:47 63.2 °F 37.8 °F 30.25 in NW 3.0 mph 9.0 mph 39 % 0.00 in
16:52 63.4 °F 36.6 °F 30.26 in NW 3.0 mph 8.0 mph 37 % 0.00 in
16:54 63.3 °F 37.2 °F 30.25 in NW 2.9 mph 5.8 mph 38 % 0.00 in
16:59 63.1 °F 36.4 °F 30.26 in WNW 1.8 mph 3.5 mph 37 % 0.00 in
17:04 62.7 °F 36.7 °F 30.25 in WNW 3.3 mph 5.0 mph 38 % 0.00 in
17:09 62.3 °F 37.7 °F 30.25 in NNW 0.6 mph 3.5 mph 40 % 0.00 in
17:14 62.1 °F 36.8 °F 30.26 in NW 3.1 mph 4.6 mph 39 % 0.00 in
17:19 62.0 °F 38.0 °F 30.26 in NNW 0.3 mph 3.5 mph 41 % 0.00 in
17:24 61.9 °F 37.3 °F 30.26 in WNW 2.1 mph 4.0 mph 40 % 0.00 in
17:29 61.8 °F 37.2 °F 30.26 in SW 3.1 mph 4.6 mph 40 % 0.00 in
17:34 61.6 °F 38.3 °F 30.26 in WNW 1.7 mph 3.0 mph 42 % 0.00 in
17:39 61.3 °F 36.8 °F 30.26 in WNW 1.3 mph 5.0 mph 40 % 0.00 in
17:44 61.1 °F 37.2 °F 30.26 in West 1.2 mph 3.0 mph 41 % 0.00 in
17:49 60.8 °F 38.1 °F 30.26 in West 0.4 mph 2.0 mph 43 % 0.00 in
17:54 60.6 °F 38.6 °F 30.26 in WNW 1.1 mph 2.3 mph 44 % 0.00 in
17:59 60.4 °F 38.4 °F 30.26 in North 0.5 mph 2.3 mph 44 % 0.00 in
18:04 60.2 °F 38.8 °F 30.26 in NW 0.6 mph 3.5 mph 45 % 0.00 in
18:09 60.0 °F 39.1 °F 30.26 in NW 0.7 mph 2.3 mph 46 % 0.00 in
18:14 59.9 °F 38.5 °F 30.26 in North 2.3 mph 5.8 mph 45 % 0.00 in
18:19 59.5 °F 38.1 °F 30.26 in North 2.5 mph 7.0 mph 45 % 0.00 in
18:24 59.2 °F 37.3 °F 30.26 in North 3.7 mph 4.6 mph 44 % 0.00 in
18:29 58.9 °F 37.6 °F 30.26 in NNE 4.5 mph 5.8 mph 45 % 0.00 in
18:34 58.7 °F 36.8 °F 30.26 in NNW 4.3 mph 8.1 mph 44 % 0.00 in
18:39 58.5 °F 37.8 °F 30.26 in NNE 2.2 mph 7.0 mph 46 % 0.00 in
18:44 58.4 °F 37.7 °F 30.26 in NNW 2.0 mph 3.5 mph 46 % 0.00 in
18:49 58.2 °F 37.5 °F 30.27 in NNW 3.9 mph 6.0 mph 46 % 0.00 in
18:54 58.1 °F 39.0 °F 30.27 in NE 2.1 mph 3.5 mph 49 % 0.00 in
18:59 57.8 °F 41.3 °F 30.27 in NNE 2.9 mph 4.6 mph 54 % 0.00 in
19:05 57.6 °F 41.5 °F 30.27 in NNE 0.3 mph 2.3 mph 55 % 0.00 in
19:10 57.3 °F 41.7 °F 30.27 in ENE 1.7 mph 3.5 mph 56 % 0.00 in
19:15 56.9 °F 41.8 °F 30.27 in ENE 1.5 mph 2.3 mph 57 % 0.00 in
19:20 56.5 °F 42.3 °F 30.28 in Calm     59 % 0.00 in
19:25 56.3 °F 42.1 °F 30.28 in ENE 0.4 mph 2.0 mph 59 % 0.00 in
19:30 56.0 °F 41.9 °F 30.28 in Calm     59 % 0.00 in
19:35 55.8 °F 41.2 °F 30.28 in Calm   1.2 mph 58 % 0.00 in
19:40 55.6 °F 41.0 °F 30.29 in Calm     58 % 0.00 in
19:45 55.3 °F 40.8 °F 30.29 in North 0.9 mph 4.0 mph 58 % 0.00 in
19:50 55.1 °F 40.6 °F 30.29 in NNE 2.9 mph 4.6 mph 58 % 0.00 in
19:55 54.9 °F 40.4 °F 30.29 in NNE 2.4 mph 5.0 mph 58 % 0.00 in
20:00 54.7 °F 39.3 °F 30.29 in North 3.7 mph 4.6 mph 56 % 0.00 in
20:05 54.6 °F 38.7 °F 30.29 in NNE 2.9 mph 3.5 mph 55 % 0.00 in
20:10 54.5 °F 39.1 °F 30.30 in NNE 1.5 mph 3.5 mph 56 % 0.00 in
20:15 54.5 °F 39.6 °F 30.30 in NNE 2.2 mph 4.6 mph 57 % 0.00 in
20:20 54.4 °F 39.9 °F 30.30 in NNE 2.8 mph 5.8 mph 58 % 0.00 in
20:25 54.4 °F 40.4 °F 30.30 in NNE 1.7 mph 3.5 mph 59 % 0.00 in
20:30 54.3 °F 40.7 °F 30.30 in NNE 1.9 mph 3.5 mph 60 % 0.00 in
20:35 54.2 °F 41.0 °F 30.31 in NNE 0.2 mph 3.5 mph 61 % 0.00 in
20:40 54.1 °F 40.9 °F 30.31 in NE 0.6 mph 1.0 mph 61 % 0.00 in
20:45 53.9 °F 41.2 °F 30.31 in NNE 3.3 mph 5.8 mph 62 % 0.00 in
20:50 53.6 °F 40.0 °F 30.31 in NNE 4.6 mph 6.9 mph 60 % 0.00 in
20:55 53.4 °F 38.5 °F 30.31 in NNE 4.1 mph 11.5 mph 57 % 0.00 in
21:00 53.3 °F 38.4 °F 30.31 in NNE 5.0 mph 9.2 mph 57 % 0.00 in
21:05 53.2 °F 38.8 °F 30.31 in North 5.5 mph 7.0 mph 58 % 0.00 in
21:10 53.2 °F 38.4 °F 30.31 in North 5.4 mph 6.9 mph 57 % 0.00 in
21:15 53.2 °F 37.4 °F 30.31 in North 6.9 mph 10.4 mph 55 % 0.00 in
21:20 53.3 °F 37.1 °F 30.31 in NNE 4.4 mph 8.1 mph 54 % 0.00 in
21:25 53.4 °F 37.6 °F 30.31 in North 5.1 mph 5.8 mph 55 % 0.00 in
21:30 53.4 °F 38.1 °F 30.31 in NNE 5.5 mph 6.9 mph 56 % 0.00 in
21:36 53.3 °F 38.4 °F 30.31 in NE 4.5 mph 6.9 mph 57 % 0.00 in
21:41 53.2 °F 39.2 °F 30.31 in NNE 3.9 mph 5.0 mph 59 % 0.00 in
21:46 53.1 °F 39.6 °F 30.31 in NNE 0.4 mph 1.2 mph 60 % 0.00 in
21:51 53.0 °F 40.7 °F 30.31 in NNE 0.4 mph 2.0 mph 63 % 0.00 in
21:56 52.8 °F 40.5 °F 30.31 in NNE 1.9 mph 2.3 mph 63 % 0.00 in
22:01 52.5 °F 40.3 °F 30.31 in NNE 0.1 mph 2.3 mph 63 % 0.00 in
22:06 52.3 °F 40.1 °F 30.31 in Calm     63 % 0.00 in
22:11 52.1 °F 40.3 °F 30.31 in Calm     64 % 0.00 in
22:16 51.9 °F 39.7 °F 30.31 in NNE 0.4 mph 1.2 mph 63 % 0.00 in
22:21 51.6 °F 39.4 °F 30.32 in Calm     63 % 0.00 in
22:26 51.4 °F 39.2 °F 30.32 in Calm     63 % 0.00 in
22:31 51.2 °F 39.0 °F 30.32 in Calm     63 % 0.00 in
22:36 51.0 °F 39.2 °F 30.32 in Calm     64 % 0.00 in
22:41 50.8 °F 39.5 °F 30.32 in Calm     65 % 0.00 in
22:46 50.6 °F 38.9 °F 30.32 in Calm     64 % 0.00 in
22:51 50.4 °F 39.1 °F 30.32 in Calm     65 % 0.00 in
22:56 50.3 °F 39.0 °F 30.32 in Calm     65 % 0.00 in
23:01 50.1 °F 38.4 °F 30.32 in ENE 0.1 mph 1.2 mph 64 % 0.00 in
23:06 50.0 °F 37.5 °F 30.32 in Calm   2.3 mph 62 % 0.00 in
23:11 49.9 °F 37.4 °F 30.32 in Calm     62 % 0.00 in
23:16 49.8 °F 37.7 °F 30.32 in Calm     63 % 0.00 in
23:21 49.7 °F 38.0 °F 30.32 in Calm     64 % 0.00 in
23:26 49.6 °F 37.9 °F 30.32 in Calm     64 % 0.00 in
23:28 49.6 °F 37.9 °F 30.33 in Calm     64 % 0.00 in
23:33 49.4 °F 37.7 °F 30.33 in Calm   1.0 mph 64 % 0.00 in
23:38 49.2 °F 37.1 °F 30.33 in NE 0.1 mph 1.2 mph 63 % 0.00 in
23:43 49.1 °F 36.2 °F 30.33 in Calm   1.2 mph 61 % 0.00 in
23:48 49.0 °F 35.7 °F 30.33 in Calm     60 % 0.00 in
23:53 48.8 °F 35.5 °F 30.33 in Calm     60 % 0.00 in
23:58 48.8 °F 35.5 °F 30.34 in Calm     60 % 0.00 in
Crab Meadow Weather
Compliments of Weather Underground - 3 mb

Script developed by  Jim McMurry - jmcmurry@mwt.net Adapted for the template by  Wim van der Kuil - Leuven-Template.eu

Weather Terms: Severe Local Storms - These are short-fused, small scale hazardous weather or hydrologic events produced by thunderstorms, including large hail, damaging winds, tornadoes, and flash floods.